createdAt,value
2017-11-25T00:00:36.759Z,0
2017-11-25T00:01:17.313Z,0
2017-11-25T00:01:57.825Z,0
2017-11-25T00:02:38.370Z,0
2017-11-25T00:03:18.891Z,0
2017-11-25T00:03:59.423Z,0
2017-11-25T00:04:40.056Z,0
2017-11-25T00:05:20.763Z,0
2017-11-25T00:06:01.431Z,0
2017-11-25T00:06:42.112Z,0
2017-11-25T00:07:22.682Z,0
2017-11-25T00:08:03.243Z,0
2017-11-25T00:08:43.777Z,0
2017-11-25T00:09:24.316Z,0
2017-11-25T00:10:04.841Z,0
2017-11-25T00:10:45.372Z,0
2017-11-25T00:11:25.907Z,0
2017-11-25T00:12:06.443Z,0
2017-11-25T00:12:46.965Z,0
2017-11-25T00:13:27.506Z,0
2017-11-25T00:14:08.061Z,0
2017-11-25T00:14:48.583Z,0
2017-11-25T00:15:29.110Z,0
2017-11-25T00:16:09.637Z,0
2017-11-25T00:16:50.178Z,0
2017-11-25T00:17:30.699Z,0
2017-11-25T00:18:11.213Z,0
2017-11-25T00:18:51.780Z,0
2017-11-25T00:19:32.284Z,0
2017-11-25T00:20:12.813Z,0
2017-11-25T00:20:53.346Z,0
2017-11-25T00:21:33.882Z,0
2017-11-25T00:22:14.437Z,0
2017-11-25T00:22:55.008Z,0
2017-11-25T00:23:35.540Z,0
2017-11-25T00:24:16.056Z,0
2017-11-25T00:24:56.587Z,0
2017-11-25T00:25:37.119Z,0
2017-11-25T00:26:17.650Z,0
2017-11-25T00:26:58.178Z,0
2017-11-25T00:27:38.700Z,0
2017-11-25T00:28:19.237Z,0
2017-11-25T00:28:59.770Z,0
2017-11-25T00:29:40.301Z,0
2017-11-25T00:30:20.850Z,0
2017-11-25T00:31:01.359Z,0
2017-11-25T00:31:41.895Z,0
2017-11-25T00:32:22.416Z,0
2017-11-25T00:33:02.951Z,0
2017-11-25T00:33:43.472Z,0
2017-11-25T00:34:23.996Z,0
2017-11-25T00:35:04.532Z,0
2017-11-25T00:35:45.056Z,0
2017-11-25T00:36:25.595Z,0
2017-11-25T00:37:06.102Z,0
2017-11-25T00:37:46.646Z,0
2017-11-25T00:38:27.181Z,0
2017-11-25T00:39:07.689Z,0
2017-11-25T00:39:48.225Z,0
2017-11-25T00:40:28.754Z,0
2017-11-25T00:41:09.293Z,0
2017-11-25T00:41:49.819Z,0
2017-11-25T00:42:30.370Z,0
2017-11-25T00:43:10.872Z,0
2017-11-25T00:43:51.406Z,0
2017-11-25T00:44:31.945Z,0
2017-11-25T00:45:12.465Z,0
2017-11-25T00:45:53.007Z,0
2017-11-25T00:46:33.535Z,0
2017-11-25T00:47:14.060Z,0
2017-11-25T00:47:54.605Z,0
2017-11-25T00:48:35.131Z,0
2017-11-25T00:49:15.665Z,0
2017-11-25T00:49:56.204Z,0
2017-11-25T00:50:36.716Z,0
2017-11-25T00:51:17.249Z,0
2017-11-25T00:51:57.774Z,0
2017-11-25T00:52:38.315Z,0
2017-11-25T00:53:18.848Z,0
2017-11-25T00:53:59.364Z,0
2017-11-25T00:54:39.902Z,0
2017-11-25T00:55:20.427Z,0
2017-11-25T00:56:00.938Z,0
2017-11-25T00:56:41.477Z,0
2017-11-25T00:57:22.002Z,0
2017-11-25T00:58:02.520Z,0
2017-11-25T00:58:43.025Z,0
2017-11-25T00:59:23.556Z,0
2017-11-25T01:00:04.088Z,0
2017-11-25T01:00:44.620Z,0
2017-11-25T01:01:25.152Z,0
2017-11-25T01:02:05.677Z,0
2017-11-25T01:02:46.207Z,0
2017-11-25T01:03:26.736Z,0
2017-11-25T01:04:07.269Z,0
2017-11-25T01:04:47.777Z,0
2017-11-25T01:05:28.306Z,0
2017-11-25T01:06:08.851Z,0
2017-11-25T01:06:49.378Z,0
2017-11-25T01:07:29.913Z,0
2017-11-25T01:08:10.432Z,0
2017-11-25T01:08:50.966Z,0
2017-11-25T01:09:31.485Z,0
2017-11-25T01:10:12.004Z,0
2017-11-25T01:10:52.528Z,0
2017-11-25T01:11:33.060Z,0
2017-11-25T01:12:13.587Z,0
2017-11-25T01:12:54.106Z,0
2017-11-25T01:13:34.623Z,0
2017-11-25T01:14:15.158Z,0
2017-11-25T01:14:55.685Z,0
2017-11-25T01:15:36.226Z,0
2017-11-25T01:16:16.737Z,0
2017-11-25T01:16:57.268Z,0
2017-11-25T01:17:37.792Z,0
2017-11-25T01:18:18.349Z,0
2017-11-25T01:18:58.881Z,0
2017-11-25T01:19:39.394Z,0
2017-11-25T01:20:19.926Z,0
2017-11-25T01:21:00.465Z,0
2017-11-25T01:21:42.609Z,0
2017-11-25T01:22:23.127Z,0
2017-11-25T01:23:03.656Z,0
2017-11-25T01:23:44.188Z,0
2017-11-25T01:24:24.719Z,0
2017-11-25T01:25:05.338Z,0
2017-11-25T01:25:45.881Z,0
2017-11-25T01:26:26.415Z,0
2017-11-25T01:27:06.943Z,0
2017-11-25T01:27:47.477Z,0
2017-11-25T01:28:28.006Z,0
2017-11-25T01:29:08.540Z,0
2017-11-25T01:29:49.061Z,0
2017-11-25T01:30:29.587Z,0
2017-11-25T01:31:10.125Z,0
2017-11-25T01:31:50.666Z,0
2017-11-25T01:32:31.191Z,0
2017-11-25T01:33:11.725Z,0
2017-11-25T01:33:52.266Z,0
2017-11-25T01:34:32.786Z,0
2017-11-25T01:35:13.313Z,0
2017-11-25T01:35:53.836Z,0
2017-11-25T01:36:34.370Z,0
2017-11-25T01:37:14.897Z,0
2017-11-25T01:37:55.433Z,0
2017-11-25T01:38:35.962Z,0
2017-11-25T01:39:16.487Z,0
2017-11-25T01:39:57.024Z,0
2017-11-25T01:40:37.555Z,0
2017-11-25T01:41:18.072Z,0
2017-11-25T01:41:58.597Z,0
2017-11-25T01:42:39.131Z,0
2017-11-25T01:43:19.664Z,0
2017-11-25T01:44:00.237Z,0
2017-11-25T01:44:40.755Z,0
2017-11-25T01:45:21.290Z,0
2017-11-25T01:46:01.795Z,0
2017-11-25T01:46:42.321Z,0
2017-11-25T01:47:22.842Z,0
2017-11-25T01:48:03.359Z,0
2017-11-25T01:48:43.888Z,0
2017-11-25T01:49:24.424Z,0
2017-11-25T01:50:04.953Z,0
2017-11-25T01:50:45.474Z,0
2017-11-25T01:51:26.009Z,0
2017-11-25T01:52:06.540Z,0
2017-11-25T01:52:47.073Z,0
2017-11-25T01:53:27.606Z,0
2017-11-25T01:54:08.126Z,0
2017-11-25T01:54:48.655Z,0
2017-11-25T01:55:29.182Z,0
2017-11-25T01:56:09.716Z,0
2017-11-25T01:56:50.257Z,0
2017-11-25T01:57:30.792Z,0
2017-11-25T01:58:11.323Z,0
2017-11-25T01:58:51.845Z,0
2017-11-25T01:59:32.381Z,0
2017-11-25T02:00:12.917Z,0
2017-11-25T02:00:53.469Z,0
2017-11-25T02:01:33.980Z,0
2017-11-25T02:02:14.512Z,0
2017-11-25T02:02:55.034Z,0
2017-11-25T02:03:35.562Z,0
2017-11-25T02:04:16.102Z,0
2017-11-25T02:04:56.840Z,0
2017-11-25T02:05:37.155Z,0
2017-11-25T02:06:17.689Z,0
2017-11-25T02:06:58.224Z,0
2017-11-25T02:07:38.751Z,0
2017-11-25T02:08:19.278Z,0
2017-11-25T02:08:59.813Z,0
2017-11-25T02:09:40.343Z,0
2017-11-25T02:10:20.884Z,0
2017-11-25T02:11:01.418Z,0
2017-11-25T02:11:41.945Z,0
2017-11-25T02:12:22.460Z,0
2017-11-25T02:13:03.001Z,0
2017-11-25T02:13:43.528Z,0
2017-11-25T02:14:24.044Z,0
2017-11-25T02:15:04.574Z,0
2017-11-25T02:15:45.119Z,0
2017-11-25T02:16:25.643Z,0
2017-11-25T02:17:06.182Z,0
2017-11-25T02:17:46.744Z,0
2017-11-25T02:18:27.278Z,0
2017-11-25T02:19:07.814Z,0
2017-11-25T02:19:48.343Z,0
2017-11-25T02:20:28.878Z,0
2017-11-25T02:21:09.405Z,0
2017-11-25T02:21:49.943Z,0
2017-11-25T02:22:30.451Z,0
2017-11-25T02:23:10.982Z,0
2017-11-25T02:23:51.511Z,0
2017-11-25T02:24:32.045Z,0
2017-11-25T02:25:12.575Z,0
2017-11-25T02:25:53.108Z,0
2017-11-25T02:26:33.633Z,0
2017-11-25T02:27:14.212Z,0
2017-11-25T02:27:54.736Z,0
2017-11-25T02:28:35.274Z,0
2017-11-25T02:29:15.810Z,0
2017-11-25T02:29:56.314Z,0
2017-11-25T02:30:36.845Z,0
2017-11-25T02:31:17.357Z,0
2017-11-25T02:31:57.902Z,0
2017-11-25T02:32:38.424Z,0
2017-11-25T02:33:18.951Z,0
2017-11-25T02:33:59.473Z,0
2017-11-25T02:34:40.007Z,0
2017-11-25T02:35:20.539Z,0
2017-11-25T02:36:01.067Z,0
2017-11-25T02:36:41.589Z,0
2017-11-25T02:37:22.111Z,0
2017-11-25T02:38:02.643Z,0
2017-11-25T02:38:43.167Z,0
2017-11-25T02:39:23.704Z,0
2017-11-25T02:40:04.216Z,0
2017-11-25T02:40:44.749Z,0
2017-11-25T02:41:25.284Z,0
2017-11-25T02:42:05.803Z,0
2017-11-25T02:42:46.331Z,0
2017-11-25T02:43:26.863Z,0
2017-11-25T02:44:07.398Z,0
2017-11-25T02:44:47.910Z,0
2017-11-25T02:45:28.452Z,0
2017-11-25T02:46:08.955Z,0
2017-11-25T02:46:49.494Z,0
2017-11-25T02:47:30.022Z,0
2017-11-25T02:48:10.556Z,0
2017-11-25T02:48:51.066Z,0
2017-11-25T02:49:31.620Z,0
2017-11-25T02:50:12.136Z,0
2017-11-25T02:50:52.659Z,0
2017-11-25T02:51:33.207Z,0
2017-11-25T02:52:13.712Z,0
2017-11-25T02:52:54.248Z,0
2017-11-25T02:53:34.772Z,0
2017-11-25T02:54:15.305Z,0
2017-11-25T02:54:55.832Z,0
2017-11-25T02:55:36.355Z,0
2017-11-25T02:56:16.880Z,0
2017-11-25T02:56:57.415Z,0
2017-11-25T02:57:37.928Z,0
2017-11-25T02:58:18.456Z,0
2017-11-25T02:58:58.989Z,0
2017-11-25T02:59:39.513Z,0
2017-11-25T03:00:20.051Z,0
2017-11-25T03:01:00.557Z,0
2017-11-25T03:01:41.084Z,0
2017-11-25T03:02:21.614Z,0
2017-11-25T03:03:02.153Z,0
2017-11-25T03:03:42.685Z,0
2017-11-25T03:04:23.220Z,0
2017-11-25T03:05:03.751Z,0
2017-11-25T03:05:44.273Z,0
2017-11-25T03:06:24.804Z,0
2017-11-25T03:07:05.342Z,0
2017-11-25T03:07:45.875Z,0
2017-11-25T03:08:26.412Z,0
2017-11-25T03:09:06.936Z,0
2017-11-25T03:09:47.469Z,0
2017-11-25T03:10:28.000Z,0
2017-11-25T03:11:08.656Z,0
2017-11-25T03:11:52.769Z,0
2017-11-25T03:12:33.304Z,0
2017-11-25T03:13:13.842Z,0
2017-11-25T03:13:54.375Z,0
2017-11-25T03:14:34.905Z,0
2017-11-25T03:15:15.434Z,0
2017-11-25T03:15:55.965Z,0
2017-11-25T03:16:36.490Z,0
2017-11-25T03:17:17.012Z,0
2017-11-25T03:17:57.546Z,0
2017-11-25T03:18:38.077Z,0
2017-11-25T03:19:18.602Z,0
2017-11-25T03:19:59.129Z,0
2017-11-25T03:20:39.657Z,0
2017-11-25T03:21:20.174Z,0
2017-11-25T03:22:00.724Z,0
2017-11-25T03:22:41.259Z,0
2017-11-25T03:23:21.793Z,0
2017-11-25T03:24:02.332Z,0
2017-11-25T03:24:42.863Z,0
2017-11-25T03:25:23.395Z,0
2017-11-25T03:26:03.919Z,0
2017-11-25T03:26:44.454Z,0
2017-11-25T03:27:24.962Z,0
2017-11-25T03:28:05.491Z,0
2017-11-25T03:28:46.020Z,0
2017-11-25T03:29:26.556Z,0
2017-11-25T03:30:07.098Z,0
2017-11-25T03:30:47.616Z,0
2017-11-25T03:31:28.141Z,0
2017-11-25T03:32:08.676Z,0
2017-11-25T03:32:49.214Z,0
2017-11-25T03:33:29.752Z,0
2017-11-25T03:34:10.258Z,0
2017-11-25T03:34:50.786Z,0
2017-11-25T03:35:31.318Z,0
2017-11-25T03:36:11.861Z,0
2017-11-25T03:36:52.392Z,0
2017-11-25T03:37:32.920Z,0
2017-11-25T03:38:13.444Z,0
2017-11-25T03:38:53.980Z,0
2017-11-25T03:39:34.511Z,0
2017-11-25T03:40:15.043Z,0
2017-11-25T03:40:55.620Z,0
2017-11-25T03:41:36.130Z,0
2017-11-25T03:42:16.665Z,0
2017-11-25T03:42:57.187Z,0
2017-11-25T03:43:37.719Z,0
2017-11-25T03:44:18.257Z,0
2017-11-25T03:44:58.792Z,0
2017-11-25T03:45:39.317Z,0
2017-11-25T03:46:19.829Z,0
2017-11-25T03:47:00.362Z,0
2017-11-25T03:47:40.869Z,0
2017-11-25T03:48:21.395Z,0
2017-11-25T03:49:01.912Z,0
2017-11-25T03:49:42.448Z,0
2017-11-25T03:50:22.980Z,0
2017-11-25T03:51:03.497Z,0
2017-11-25T03:51:44.031Z,0
2017-11-25T03:52:24.558Z,0
2017-11-25T03:53:05.100Z,0
2017-11-25T03:53:45.630Z,0
2017-11-25T03:54:26.145Z,0
2017-11-25T03:55:06.734Z,0
2017-11-25T03:55:47.260Z,0
2017-11-25T03:56:27.789Z,0
2017-11-25T03:57:08.321Z,0
2017-11-25T03:57:48.835Z,0
2017-11-25T03:58:29.347Z,0
2017-11-25T03:59:09.869Z,0
2017-11-25T03:59:50.392Z,0
2017-11-25T04:00:30.915Z,0
2017-11-25T04:01:11.431Z,0
2017-11-25T04:01:51.967Z,0
2017-11-25T04:02:32.506Z,0
2017-11-25T04:03:13.027Z,0
2017-11-25T04:03:53.564Z,0
2017-11-25T04:04:34.095Z,0
2017-11-25T04:05:14.609Z,0
2017-11-25T04:05:55.137Z,0
2017-11-25T04:06:35.658Z,0
2017-11-25T04:07:16.192Z,0
2017-11-25T04:07:56.727Z,0
2017-11-25T04:08:37.253Z,0
2017-11-25T04:09:17.796Z,0
2017-11-25T04:09:58.300Z,0
2017-11-25T04:10:38.815Z,0
2017-11-25T04:11:19.347Z,0
2017-11-25T04:11:59.881Z,0
2017-11-25T04:12:40.405Z,0
2017-11-25T04:13:20.937Z,0
2017-11-25T04:14:01.466Z,0
2017-11-25T04:14:41.994Z,0
2017-11-25T04:15:22.578Z,0
2017-11-25T04:16:03.114Z,0
2017-11-25T04:16:43.641Z,0
2017-11-25T04:17:24.168Z,0
2017-11-25T04:18:04.715Z,0
2017-11-25T04:18:45.249Z,0
2017-11-25T04:19:25.784Z,0
2017-11-25T04:20:06.332Z,0
2017-11-25T04:20:46.837Z,0
2017-11-25T04:21:27.372Z,0
2017-11-25T04:22:07.903Z,0
2017-11-25T04:22:48.498Z,0
2017-11-25T04:23:29.019Z,0
2017-11-25T04:24:09.547Z,0
2017-11-25T04:24:50.071Z,0
2017-11-25T04:25:30.595Z,0
2017-11-25T04:26:11.115Z,0
2017-11-25T04:26:51.657Z,0
2017-11-25T04:27:32.195Z,0
2017-11-25T04:28:12.723Z,0
2017-11-25T04:28:53.244Z,0
2017-11-25T04:29:33.759Z,0
2017-11-25T04:30:14.284Z,0
2017-11-25T04:30:54.813Z,0
2017-11-25T04:31:35.332Z,0
2017-11-25T04:32:15.868Z,0
2017-11-25T04:32:56.410Z,0
2017-11-25T04:33:36.960Z,0
2017-11-25T04:34:17.481Z,0
2017-11-25T04:34:58.031Z,0
2017-11-25T04:35:38.553Z,0
2017-11-25T04:36:19.090Z,0
2017-11-25T04:36:59.614Z,0
2017-11-25T04:37:40.150Z,0
2017-11-25T04:38:20.676Z,0
2017-11-25T04:39:01.206Z,0
2017-11-25T04:39:41.717Z,0
2017-11-25T04:40:22.287Z,0
2017-11-25T04:41:02.823Z,0
2017-11-25T04:41:43.358Z,0
2017-11-25T04:42:23.889Z,0
2017-11-25T04:43:04.412Z,0
2017-11-25T04:43:44.923Z,0
2017-11-25T04:44:25.456Z,0
2017-11-25T04:45:05.983Z,0
2017-11-25T04:45:46.515Z,0
2017-11-25T04:46:27.039Z,0
2017-11-25T04:47:07.577Z,0
2017-11-25T04:47:48.097Z,0
2017-11-25T04:48:28.639Z,0
2017-11-25T04:49:09.156Z,0
2017-11-25T04:49:49.690Z,0
2017-11-25T04:50:30.200Z,0
2017-11-25T04:51:10.716Z,0
2017-11-25T04:51:51.230Z,0
2017-11-25T04:52:31.751Z,0
2017-11-25T04:53:12.285Z,0
2017-11-25T04:53:52.793Z,0
2017-11-25T04:54:33.329Z,0
2017-11-25T04:55:13.863Z,0
2017-11-25T04:55:54.387Z,0
2017-11-25T04:56:34.915Z,0
2017-11-25T04:57:15.435Z,0
2017-11-25T04:57:55.950Z,0
2017-11-25T04:58:36.575Z,0
2017-11-25T04:59:17.105Z,0
2017-11-25T04:59:57.639Z,0
2017-11-25T05:00:38.169Z,0
2017-11-25T05:01:18.716Z,0
2017-11-25T05:01:59.228Z,0
2017-11-25T05:02:39.761Z,0
2017-11-25T05:03:20.288Z,0
2017-11-25T05:04:00.828Z,0
2017-11-25T05:04:41.361Z,0
2017-11-25T05:05:21.878Z,0
2017-11-25T05:06:02.398Z,0
2017-11-25T05:06:42.935Z,0
2017-11-25T05:07:23.473Z,0
2017-11-25T05:08:03.999Z,0
2017-11-25T05:08:44.528Z,0
2017-11-25T05:09:25.047Z,0
2017-11-25T05:10:05.567Z,0
2017-11-25T05:10:46.086Z,0
2017-11-25T05:11:26.763Z,0
2017-11-25T05:12:07.280Z,0
2017-11-25T05:12:47.806Z,0
2017-11-25T05:13:28.326Z,0
2017-11-25T05:14:08.841Z,0
2017-11-25T05:14:49.367Z,0
2017-11-25T05:15:29.888Z,0
2017-11-25T05:16:10.420Z,0
2017-11-25T05:16:50.949Z,0
2017-11-25T05:17:31.493Z,0
2017-11-25T05:18:11.994Z,0
2017-11-25T05:18:52.514Z,0
2017-11-25T05:19:33.044Z,0
2017-11-25T05:20:13.556Z,0
2017-11-25T05:20:54.072Z,0
2017-11-25T05:21:34.593Z,0
2017-11-25T05:22:15.116Z,0
2017-11-25T05:22:55.631Z,0
2017-11-25T05:23:36.140Z,0
2017-11-25T05:24:16.661Z,0
2017-11-25T05:24:57.190Z,0
2017-11-25T05:25:37.713Z,0
2017-11-25T05:26:18.236Z,0
2017-11-25T05:26:58.737Z,0
2017-11-25T05:27:39.275Z,0
2017-11-25T05:28:19.802Z,0
2017-11-25T05:29:00.305Z,0
2017-11-25T05:29:40.841Z,0
2017-11-25T05:30:21.378Z,0
2017-11-25T05:31:01.907Z,0
2017-11-25T05:31:42.431Z,0
2017-11-25T05:32:22.956Z,0
2017-11-25T05:33:03.497Z,0
2017-11-25T05:33:44.036Z,0
2017-11-25T05:34:24.537Z,0
2017-11-25T05:35:05.054Z,0
2017-11-25T05:35:45.590Z,0
2017-11-25T05:36:26.129Z,0
2017-11-25T05:37:06.642Z,0
2017-11-25T05:37:47.177Z,0
2017-11-25T05:38:27.703Z,0
2017-11-25T05:39:08.234Z,0
2017-11-25T05:39:48.756Z,0
2017-11-25T05:40:29.297Z,0
2017-11-25T05:41:09.815Z,0
2017-11-25T05:41:50.348Z,0
2017-11-25T05:42:30.904Z,0
2017-11-25T05:43:11.393Z,0
2017-11-25T05:43:51.924Z,0
2017-11-25T05:44:32.455Z,0
2017-11-25T05:45:12.978Z,0
2017-11-25T05:45:53.511Z,0
2017-11-25T05:46:34.026Z,0
2017-11-25T05:47:14.554Z,0
2017-11-25T05:47:55.091Z,0
2017-11-25T05:48:35.621Z,0
2017-11-25T05:49:16.151Z,0
2017-11-25T05:49:56.666Z,0
2017-11-25T05:50:37.195Z,0
2017-11-25T05:51:17.724Z,0
2017-11-25T05:51:58.268Z,0
2017-11-25T05:52:38.801Z,0
2017-11-25T05:53:19.338Z,0
2017-11-25T05:53:59.868Z,0
2017-11-25T05:54:40.398Z,0
2017-11-25T05:55:20.927Z,0
2017-11-25T05:56:01.470Z,0
2017-11-25T05:56:42.005Z,0
2017-11-25T05:57:22.524Z,0
2017-11-25T05:58:03.054Z,0
2017-11-25T05:58:43.592Z,0
2017-11-25T05:59:24.117Z,0
2017-11-25T06:00:04.636Z,0
2017-11-25T06:00:45.164Z,0
2017-11-25T06:01:25.680Z,0
2017-11-25T06:02:06.204Z,0
2017-11-25T06:02:46.737Z,0
2017-11-25T06:03:27.251Z,0
2017-11-25T06:04:07.761Z,0
2017-11-25T06:04:48.295Z,0
2017-11-25T06:05:28.813Z,0
2017-11-25T06:06:09.338Z,0
2017-11-25T06:06:49.858Z,0
2017-11-25T06:07:30.389Z,0
2017-11-25T06:08:10.923Z,0
2017-11-25T06:08:51.445Z,0
2017-11-25T06:09:31.970Z,0
2017-11-25T06:10:12.499Z,0
2017-11-25T06:10:53.024Z,0
2017-11-25T06:11:33.609Z,0
2017-11-25T06:12:14.139Z,0
2017-11-25T06:12:54.659Z,0
2017-11-25T06:13:35.183Z,0
2017-11-25T06:14:15.731Z,0
2017-11-25T06:14:56.251Z,0
2017-11-25T06:15:36.760Z,0
2017-11-25T06:16:17.307Z,0
2017-11-25T06:16:57.845Z,0
2017-11-25T06:17:38.365Z,0
2017-11-25T06:18:18.896Z,0
2017-11-25T06:18:59.470Z,0
2017-11-25T06:19:40.074Z,0
2017-11-25T06:20:20.611Z,0
2017-11-25T06:21:01.143Z,0
2017-11-25T06:21:41.671Z,0
2017-11-25T06:22:22.199Z,0
2017-11-25T06:23:02.723Z,0
2017-11-25T06:23:43.265Z,0
2017-11-25T06:24:23.910Z,0
2017-11-25T06:25:04.506Z,0
2017-11-25T06:25:45.090Z,0
2017-11-25T06:26:25.678Z,0
2017-11-25T06:27:06.234Z,0
2017-11-25T06:27:46.777Z,0
2017-11-25T06:28:27.333Z,0
2017-11-25T06:29:07.907Z,0
2017-11-25T06:29:48.454Z,0
2017-11-25T06:30:29.000Z,0
2017-11-25T06:31:09.589Z,0
2017-11-25T06:31:50.096Z,0
2017-11-25T06:32:30.636Z,0
2017-11-25T06:33:11.206Z,0
2017-11-25T06:33:51.734Z,0
2017-11-25T06:34:32.305Z,0
2017-11-25T06:35:12.856Z,0
2017-11-25T06:35:53.405Z,0
2017-11-25T06:36:33.960Z,0
2017-11-25T06:37:14.508Z,0
2017-11-25T06:37:55.079Z,0
2017-11-25T06:38:35.592Z,0
2017-11-25T06:39:16.144Z,0
2017-11-25T06:39:56.666Z,0
2017-11-25T06:40:37.196Z,0
2017-11-25T06:41:17.812Z,0
2017-11-25T06:41:58.381Z,0
2017-11-25T06:42:38.916Z,0
2017-11-25T06:43:19.525Z,0
2017-11-25T06:44:00.065Z,0
2017-11-25T06:44:40.582Z,0
2017-11-25T06:45:21.106Z,0
2017-11-25T06:46:01.633Z,0
2017-11-25T06:46:42.155Z,0
2017-11-25T06:47:22.751Z,0
2017-11-25T06:48:03.304Z,0
2017-11-25T06:48:43.865Z,0
2017-11-25T06:49:24.385Z,4
2017-11-25T06:50:04.947Z,4
2017-11-25T06:50:45.544Z,0
2017-11-25T06:51:26.125Z,0
2017-11-25T06:52:06.706Z,4
2017-11-25T06:52:47.273Z,4
2017-11-25T06:53:27.802Z,4
2017-11-25T06:54:08.324Z,4
2017-11-25T06:54:48.860Z,8
2017-11-25T06:55:29.447Z,8
2017-11-25T06:56:09.962Z,4
2017-11-25T06:56:50.479Z,4
2017-11-25T06:57:31.003Z,4
2017-11-25T06:58:11.524Z,4
2017-11-25T06:58:52.033Z,8
2017-11-25T06:59:32.567Z,8
2017-11-25T07:00:13.114Z,8
2017-11-25T07:00:53.668Z,8
2017-11-25T07:01:34.206Z,12
2017-11-25T07:02:14.811Z,12
2017-11-25T07:02:55.303Z,12
2017-11-25T07:03:35.887Z,12
2017-11-25T07:04:16.419Z,12
2017-11-25T07:04:56.952Z,12
2017-11-25T07:05:37.519Z,16
2017-11-25T07:06:18.053Z,12
2017-11-25T07:06:58.565Z,12
2017-11-25T07:07:39.085Z,12
2017-11-25T07:08:19.598Z,16
2017-11-25T07:09:00.164Z,16
2017-11-25T07:09:40.722Z,16
2017-11-25T07:10:21.297Z,16
2017-11-25T07:11:01.822Z,20
2017-11-25T07:11:42.413Z,24
2017-11-25T07:12:22.982Z,24
2017-11-25T07:13:03.514Z,24
2017-11-25T07:13:44.091Z,28
2017-11-25T07:14:24.585Z,28
2017-11-25T07:15:05.111Z,28
2017-11-25T07:15:45.639Z,32
2017-11-25T07:16:26.152Z,32
2017-11-25T07:17:06.672Z,36
2017-11-25T07:17:47.180Z,40
2017-11-25T07:18:27.730Z,40
2017-11-25T07:19:08.263Z,44
2017-11-25T07:19:48.796Z,44
2017-11-25T07:20:29.334Z,44
2017-11-25T07:21:09.845Z,48
2017-11-25T07:21:50.359Z,48
2017-11-25T07:22:30.880Z,56
2017-11-25T07:23:11.398Z,52
2017-11-25T07:23:51.927Z,60
2017-11-25T07:24:32.462Z,60
2017-11-25T07:25:12.993Z,60
2017-11-25T07:25:53.516Z,52
2017-11-25T07:26:34.045Z,52
2017-11-25T07:27:14.566Z,52
2017-11-25T07:27:55.098Z,52
2017-11-25T07:28:35.654Z,56
2017-11-25T07:29:16.150Z,52
2017-11-25T07:29:56.694Z,52
2017-11-25T07:30:37.262Z,56
2017-11-25T07:31:17.744Z,52
2017-11-25T07:31:58.272Z,56
2017-11-25T07:32:38.796Z,60
2017-11-25T07:33:19.315Z,60
2017-11-25T07:33:59.847Z,68
2017-11-25T07:34:40.386Z,72
2017-11-25T07:35:20.917Z,76
2017-11-25T07:36:01.431Z,72
2017-11-25T07:36:41.953Z,64
2017-11-25T07:37:22.476Z,64
2017-11-25T07:38:03.030Z,68
2017-11-25T07:38:43.519Z,72
2017-11-25T07:39:24.055Z,72
2017-11-25T07:40:04.579Z,80
2017-11-25T07:40:45.173Z,96
2017-11-25T07:41:25.706Z,100
2017-11-25T07:42:06.289Z,96
2017-11-25T07:42:46.814Z,100
2017-11-25T07:43:27.350Z,112
2017-11-25T07:44:07.858Z,100
2017-11-25T07:44:48.366Z,100
2017-11-25T07:45:28.911Z,100
2017-11-25T07:46:09.432Z,104
2017-11-25T07:46:49.951Z,116
2017-11-25T07:47:30.460Z,124
2017-11-25T07:48:10.978Z,132
2017-11-25T07:48:51.515Z,140
2017-11-25T07:49:32.033Z,144
2017-11-25T07:50:12.562Z,152
2017-11-25T07:50:53.098Z,128
2017-11-25T07:51:33.628Z,144
2017-11-25T07:52:14.147Z,128
2017-11-25T07:52:54.661Z,120
2017-11-25T07:53:35.168Z,132
2017-11-25T07:54:15.676Z,132
2017-11-25T07:54:56.219Z,128
2017-11-25T07:55:36.729Z,112
2017-11-25T07:56:17.235Z,112
2017-11-25T07:56:57.766Z,128
2017-11-25T07:57:38.289Z,148
2017-11-25T07:58:18.831Z,144
2017-11-25T07:58:59.371Z,140
2017-11-25T07:59:39.911Z,168
2017-11-25T08:00:20.448Z,160
2017-11-25T08:01:00.966Z,164
2017-11-25T08:01:41.508Z,160
2017-11-25T08:02:22.025Z,156
2017-11-25T08:03:02.573Z,160
2017-11-25T08:03:43.075Z,156
2017-11-25T08:04:23.619Z,164
2017-11-25T08:05:04.149Z,172
2017-11-25T08:05:44.634Z,176
2017-11-25T08:06:25.156Z,180
2017-11-25T08:07:05.663Z,180
2017-11-25T08:07:46.181Z,184
2017-11-25T08:08:26.715Z,196
2017-11-25T08:09:07.235Z,196
2017-11-25T08:09:47.750Z,200
2017-11-25T08:10:28.276Z,204
2017-11-25T08:11:08.794Z,208
2017-11-25T08:11:49.312Z,200
2017-11-25T08:12:29.824Z,196
2017-11-25T08:13:10.327Z,220
2017-11-25T08:13:50.855Z,224
2017-11-25T08:14:31.371Z,216
2017-11-25T08:15:11.888Z,216
2017-11-25T08:15:52.416Z,204
2017-11-25T08:16:32.945Z,196
2017-11-25T08:17:13.475Z,172
2017-11-25T08:17:54.001Z,152
2017-11-25T08:18:34.473Z,144
2017-11-25T08:19:14.995Z,136
2017-11-25T08:19:55.520Z,136
2017-11-25T08:20:36.002Z,144
2017-11-25T08:21:16.518Z,140
2017-11-25T08:21:57.021Z,128
2017-11-25T08:22:37.523Z,132
2017-11-25T08:23:18.056Z,128
2017-11-25T08:23:58.589Z,120
2017-11-25T08:24:39.113Z,112
2017-11-25T08:25:19.644Z,116
2017-11-25T08:26:00.152Z,120
2017-11-25T08:26:40.674Z,116
2017-11-25T08:27:21.199Z,116
2017-11-25T08:28:01.729Z,112
2017-11-25T08:28:42.251Z,124
2017-11-25T08:29:22.780Z,136
2017-11-25T08:30:03.329Z,144
2017-11-25T08:30:43.830Z,148
2017-11-25T08:31:24.336Z,164
2017-11-25T08:32:04.870Z,200
2017-11-25T08:32:45.377Z,240
2017-11-25T08:33:25.890Z,268
2017-11-25T08:34:06.437Z,272
2017-11-25T08:34:46.955Z,268
2017-11-25T08:35:27.472Z,272
2017-11-25T08:36:07.997Z,280
2017-11-25T08:36:48.520Z,288
2017-11-25T08:37:29.049Z,312
2017-11-25T08:38:09.560Z,316
2017-11-25T08:38:50.075Z,340
2017-11-25T08:39:30.613Z,376
2017-11-25T08:40:11.151Z,408
2017-11-25T08:40:51.655Z,440
2017-11-25T08:41:32.178Z,468
2017-11-25T08:42:12.741Z,496
2017-11-25T08:42:53.243Z,520
2017-11-25T08:43:33.732Z,532
2017-11-25T08:44:14.250Z,516
2017-11-25T08:44:54.775Z,508
2017-11-25T08:45:35.283Z,496
2017-11-25T08:46:15.805Z,496
2017-11-25T08:46:56.342Z,500
2017-11-25T08:47:36.848Z,504
2017-11-25T08:48:17.371Z,504
2017-11-25T08:48:57.944Z,500
2017-11-25T08:49:38.465Z,492
2017-11-25T08:50:18.977Z,484
2017-11-25T08:50:59.489Z,492
2017-11-25T08:51:40.017Z,492
2017-11-25T08:52:20.539Z,468
2017-11-25T08:53:01.045Z,460
2017-11-25T08:53:41.589Z,468
2017-11-25T08:54:22.121Z,484
2017-11-25T08:55:02.645Z,500
2017-11-25T08:55:43.157Z,516
2017-11-25T08:56:23.684Z,540
2017-11-25T08:57:04.199Z,572
2017-11-25T08:57:44.713Z,616
2017-11-25T08:58:25.217Z,620
2017-11-25T08:59:05.737Z,672
2017-11-25T08:59:46.255Z,712
2017-11-25T09:00:26.771Z,740
2017-11-25T09:01:07.299Z,780
2017-11-25T09:01:47.830Z,812
2017-11-25T09:02:28.342Z,832
2017-11-25T09:03:08.872Z,872
2017-11-25T09:03:49.421Z,920
2017-11-25T09:04:29.955Z,944
2017-11-25T09:05:10.474Z,984
2017-11-25T09:05:50.999Z,1068
2017-11-25T09:06:31.538Z,1072
2017-11-25T09:07:12.082Z,956
2017-11-25T09:07:52.613Z,1044
2017-11-25T09:08:33.147Z,1056
2017-11-25T09:09:13.678Z,1064
2017-11-25T09:09:54.189Z,1024
2017-11-25T09:10:34.725Z,1064
2017-11-25T09:11:15.255Z,1036
2017-11-25T09:11:55.773Z,1004
2017-11-25T09:12:36.293Z,992
2017-11-25T09:13:16.825Z,1000
2017-11-25T09:13:57.408Z,1024
2017-11-25T09:14:37.928Z,1048
2017-11-25T09:15:18.454Z,1076
2017-11-25T09:15:58.967Z,1088
2017-11-25T09:16:39.493Z,1108
2017-11-25T09:17:20.030Z,1108
2017-11-25T09:18:00.559Z,1108
2017-11-25T09:18:41.091Z,1120
2017-11-25T09:19:21.610Z,1156
2017-11-25T09:20:02.136Z,1172
2017-11-25T09:20:42.656Z,1212
2017-11-25T09:21:23.162Z,1284
2017-11-25T09:22:03.702Z,1244
2017-11-25T09:22:44.227Z,1272
2017-11-25T09:23:24.750Z,1316
2017-11-25T09:24:05.299Z,1348
2017-11-25T09:24:45.810Z,1360
2017-11-25T09:25:26.348Z,1356
2017-11-25T09:26:06.886Z,1344
2017-11-25T09:26:47.392Z,1372
2017-11-25T09:27:27.918Z,1376
2017-11-25T09:28:08.430Z,1380
2017-11-25T09:28:48.980Z,1360
2017-11-25T09:29:29.486Z,1344
2017-11-25T09:30:09.998Z,1328
2017-11-25T09:30:50.542Z,1308
2017-11-25T09:31:31.058Z,1272
2017-11-25T09:32:11.585Z,1244
2017-11-25T09:32:52.128Z,1204
2017-11-25T09:33:32.653Z,1148
2017-11-25T09:34:13.171Z,1128
2017-11-25T09:34:53.680Z,1072
2017-11-25T09:35:34.191Z,976
2017-11-25T09:36:14.713Z,1048
2017-11-25T09:36:55.232Z,1092
2017-11-25T09:37:35.752Z,1148
2017-11-25T09:38:16.269Z,1172
2017-11-25T09:38:56.787Z,1160
2017-11-25T09:39:37.320Z,1236
2017-11-25T09:40:17.840Z,1264
2017-11-25T09:40:58.357Z,1276
2017-11-25T09:41:38.872Z,1304
2017-11-25T09:42:19.387Z,1336
2017-11-25T09:42:59.909Z,1360
2017-11-25T09:43:40.429Z,1384
2017-11-25T09:44:20.963Z,1408
2017-11-25T09:45:01.483Z,1424
2017-11-25T09:45:42.070Z,1436
2017-11-25T09:46:22.601Z,1436
2017-11-25T09:47:03.275Z,1436
2017-11-25T09:47:43.744Z,1428